Time;durP1;ratioP1;P1;durP2;ratioP2;P2;SDS_P1;SDS_P2;PMS_P1;PMS_P2;Temp;Humidity;BMP_temperature;BMP_pressure;BME280_temperature;BME280_humidity;BME280_pressure;Samples;Min_cycle;Max_cycle;Signal;HPM_P1;HPM_P2
2022/03/17 00:00:38;;;;;;;24.87;21.67;;;;;;;6.98;70.13;102601.00;2098417;28;20199;-68
2022/03/17 00:01:39;;;;;;;25.80;21.30;;;;;;;7.03;70.59;102602.69;2098397;28;20186;-68
2022/03/17 00:02:40;;;;;;;24.20;21.53;;;;;;;7.03;70.79;102608.22;2097653;28;20184;-68
2022/03/17 00:03:40;;;;;;;23.27;20.80;;;;;;;7.05;70.66;102609.44;2097252;28;20231;-68
2022/03/17 00:04:41;;;;;;;24.97;22.23;;;;;;;6.95;71.25;102606.44;2098164;28;20413;-68
2022/03/17 00:05:41;;;;;;;23.37;20.70;;;;;;;6.96;70.90;102606.09;2098558;28;20182;-68
2022/03/17 00:06:42;;;;;;;24.63;21.67;;;;;;;6.39;70.74;102501.28;2098529;28;20199;-68
2022/03/17 00:07:43;;;;;;;25.37;21.20;;;;;;;7.17;71.17;102605.78;2098262;28;20262;-68
2022/03/17 00:08:44;;;;;;;23.27;20.88;;;;;;;7.22;71.01;102611.00;2098517;28;20239;-68
2022/03/17 00:09:44;;;;;;;25.00;21.03;;;;;;;6.01;70.65;102423.28;2098368;28;20232;-68
2022/03/17 00:10:45;;;;;;;23.10;20.33;;;;;;;7.19;70.19;102615.28;2098411;28;20182;-68
2022/03/17 00:11:46;;;;;;;26.47;20.87;;;;;;;7.17;70.67;102614.81;2098399;28;20198;-68
2022/03/17 00:12:47;;;;;;;23.67;20.77;;;;;;;7.17;70.66;102605.78;2100861;28;20741;-68
2022/03/17 00:13:48;;;;;;;25.02;21.90;;;;;;;7.18;70.74;102615.63;2106109;28;20607;-68
2022/03/17 00:14:48;;;;;;;24.40;21.60;;;;;;;6.62;70.38;102523.44;2106579;28;20174;-68
2022/03/17 00:15:49;;;;;;;24.43;21.83;;;;;;;7.19;71.10;102615.28;2106888;28;20212;-68
2022/03/17 00:16:50;;;;;;;24.83;22.23;;;;;;;7.14;70.66;102610.06;2106278;28;20208;-68
2022/03/17 00:17:50;;;;;;;24.80;22.00;;;;;;;7.14;70.41;102612.81;2106760;28;20171;-68
2022/03/17 00:18:51;;;;;;;25.73;22.70;;;;;;;7.04;71.18;102599.59;2105993;28;20187;-68
2022/03/17 00:19:51;;;;;;;26.37;22.97;;;;;;;7.07;71.08;102606.34;2106072;28;20194;-68
2022/03/17 00:20:52;;;;;;;26.27;23.00;;;;;;;7.11;70.64;102613.50;2106493;28;20663;-68
2022/03/17 00:21:52;;;;;;;25.83;23.13;;;;;;;7.18;70.42;102613.66;2106768;28;20208;-68
2022/03/17 00:22:53;;;;;;;24.90;22.17;;;;;;;6.58;70.88;102523.38;2106423;28;20182;-68
2022/03/17 00:23:54;;;;;;;24.63;22.07;;;;;;;7.19;70.74;102617.22;2105598;28;20179;-68
2022/03/17 00:24:54;;;;;;;25.60;23.00;;;;;;;7.14;71.37;102601.78;2106542;28;20171;-68
2022/03/17 00:25:56;;;;;;;25.60;23.00;;;;;;;7.21;70.62;102615.72;2106638;28;20308;-68
2022/03/17 00:26:56;;;;;;;25.70;22.90;;;;;;;7.13;70.99;102616.69;2106361;28;20181;-68
2022/03/17 00:27:57;;;;;;;27.90;24.27;;;;;;;7.15;70.85;102616.34;2106619;28;20182;-68
2022/03/17 00:28:58;;;;;;;26.60;23.80;;;;;;;7.10;70.98;102611.94;2106630;28;20246;-68
2022/03/17 00:29:58;;;;;;;26.47;23.60;;;;;;;7.00;71.35;102618.00;2106583;28;20182;-68
2022/03/17 00:30:59;;;;;;;27.03;24.27;;;;;;;6.78;71.61;102595.81;2106523;28;20171;-68
2022/03/17 00:32:00;;;;;;;27.07;24.27;;;;;;;6.92;71.65;102618.22;2106375;28;20278;-68
2022/03/17 00:33:00;;;;;;;29.47;25.37;;;;;;;6.92;71.68;102621.75;2106571;28;20171;-68
2022/03/17 00:34:01;;;;;;;28.30;25.23;;;;;;;5.71;71.49;102417.44;2106074;28;20169;-68
2022/03/17 00:36:21;;;;;;;27.05;23.55;;;;;;;6.66;71.72;102543.59;2106628;28;20171;-68
2022/03/17 00:37:23;;;;;;;28.60;24.27;;;;;;;7.13;71.94;102619.44;2106244;28;20182;-68
2022/03/17 00:38:24;;;;;;;26.77;23.75;;;;;;;6.33;71.49;102513.72;2106602;28;20679;-68
2022/03/17 00:39:25;;;;;;;28.73;24.17;;;;;;;6.44;71.64;102523.03;2106515;28;20579;-68
2022/03/17 00:40:25;;;;;;;26.77;23.63;;;;;;;7.20;71.77;102619.63;2106496;28;20183;-68
2022/03/17 00:41:26;;;;;;;26.87;24.07;;;;;;;7.19;71.53;102620.78;2106255;28;20179;-68
2022/03/17 00:42:27;;;;;;;27.07;24.13;;;;;;;6.55;71.12;102534.28;2105779;28;20175;-68
2022/03/17 00:43:28;;;;;;;26.17;23.27;;;;;;;7.23;71.43;102615.34;2105354;28;20231;-68
2022/03/17 00:44:28;;;;;;;28.23;24.50;;;;;;;6.24;71.50;102465.50;2099255;28;20176;-68
2022/03/17 00:45:29;;;;;;;27.10;24.23;;;;;;;7.24;71.49;102622.44;2098156;28;20176;-68
2022/03/17 00:46:30;;;;;;;26.70;23.80;;;;;;;7.12;71.43;102637.16;2098052;28;20181;-68
2022/03/17 00:47:30;;;;;;;28.43;24.70;;;;;;;7.14;71.72;102618.31;2097949;28;20191;-68
2022/03/17 00:48:31;;;;;;;27.03;24.27;;;;;;;6.72;71.50;102540.19;2098186;28;20179;-68
2022/03/17 00:49:31;;;;;;;26.73;23.83;;;;;;;5.64;71.71;102383.47;2098052;28;20192;-68
2022/03/17 00:50:33;;;;;;;28.37;24.50;;;;;;;7.10;71.50;102619.38;2098027;28;20185;-68
2022/03/17 00:51:34;;;;;;;28.80;25.45;;;;;;;6.96;71.80;102616.31;2097838;28;20668;-68
2022/03/17 00:52:35;;;;;;;27.95;24.45;;;;;;;7.05;71.42;102620.47;2098048;28;20357;-68
2022/03/17 00:53:35;;;;;;;27.63;24.77;;;;;;;7.00;71.77;102622.69;2097774;28;20285;-68
2022/03/17 00:54:39;;;;;;;25.80;23.00;;;;;;;7.02;71.61;102617.66;2097402;28;20184;-68
2022/03/17 00:55:39;;;;;;;27.58;24.67;;;;;;;7.09;71.71;102615.84;2097236;28;20201;-68
2022/03/17 00:56:40;;;;;;;27.03;23.77;;;;;;;7.18;71.46;102621.94;2097544;28;20459;-68
2022/03/17 00:57:41;;;;;;;27.00;24.17;;;;;;;7.25;71.46;102622.09;2097754;28;20170;-68
2022/03/17 00:58:45;;;;;;;27.48;23.90;;;;;;;6.32;71.26;102470.03;2097775;28;20209;-68
2022/03/17 00:59:48;;;;;;;26.52;23.20;;;;;;;7.36;71.13;102619.56;2097991;28;20199;-68
2022/03/17 01:00:49;;;;;;;26.58;23.77;;;;;;;7.40;70.81;102621.25;2097920;28;20203;-68
2022/03/17 01:01:50;;;;;;;26.63;23.83;;;;;;;6.88;70.72;102532.66;2097938;28;20168;-68
2022/03/17 01:02:53;;;;;;;27.27;23.33;;;;;;;7.42;70.03;102624.41;2098008;28;20179;-68
2022/03/17 01:03:53;;;;;;;28.92;23.52;;;;;;;6.83;69.88;102527.44;2097161;28;20253;-68
2022/03/17 01:04:54;;;;;;;25.50;22.80;;;;;;;7.46;70.28;102619.78;2097619;28;20201;-68
2022/03/17 01:05:54;;;;;;;25.90;23.10;;;;;;;7.48;70.18;102622.97;2098037;28;20184;-68
2022/03/17 01:06:55;;;;;;;27.50;22.87;;;;;;;7.55;70.33;102630.59;2097741;28;20555;-68
2022/03/17 01:07:55;;;;;;;23.97;21.40;;;;;;;7.57;69.89;102629.06;2097761;28;20694;-68
2022/03/17 01:08:56;;;;;;;23.93;21.43;;;;;;;6.14;70.12;102403.53;2098087;28;20254;-68
2022/03/17 01:09:56;;;;;;;26.50;22.67;;;;;;;7.45;69.77;102614.63;2097969;28;20656;-68
2022/03/17 01:10:57;;;;;;;24.83;21.57;;;;;;;7.52;70.22;102614.75;2097974;28;20179;-68
2022/03/17 01:11:58;;;;;;;24.93;22.23;;;;;;;7.11;69.31;102544.59;2097803;28;20206;-68
2022/03/17 01:13:01;;;;;;;23.35;21.02;;;;;;;7.67;69.21;102634.00;2101837;28;20672;-68
2022/03/17 01:14:02;;;;;;;23.13;20.70;;;;;;;7.42;69.70;102582.22;2105458;28;20179;-68
2022/03/17 01:15:04;;;;;;;23.67;21.00;;;;;;;7.72;69.51;102633.72;2105416;28;20175;-68
2022/03/17 01:16:04;;;;;;;23.02;20.52;;;;;;;7.31;68.73;102565.50;2105519;28;20641;-68
2022/03/17 01:17:05;;;;;;;22.80;20.33;;;;;;;7.71;68.91;102632.13;2105929;28;20540;-68
2022/03/17 01:18:06;;;;;;;23.40;20.87;;;;;;;7.67;69.06;102633.19;2105993;28;20201;-68
2022/03/17 01:19:06;;;;;;;23.07;20.67;;;;;;;7.55;69.10;102625.06;2106288;28;20171;-68
2022/03/17 01:20:08;;;;;;;22.83;20.40;;;;;;;7.59;69.05;102642.50;2101727;28;20656;-68
2022/03/17 01:21:09;;;;;;;23.05;20.65;;;;;;;7.58;68.98;102638.94;2097488;28;20305;-68
2022/03/17 01:22:11;;;;;;;23.10;20.40;;;;;;;7.55;69.69;102627.84;2097579;28;20641;-68
2022/03/17 01:23:11;;;;;;;27.83;20.77;;;;;;;7.66;69.25;102640.69;2097100;28;20715;-68
2022/03/17 01:24:12;;;;;;;25.83;21.50;;;;;;;7.59;69.46;102635.00;2096998;28;20585;-68
2022/03/17 01:25:13;;;;;;;22.43;19.80;;;;;;;7.59;69.46;102648.03;2097790;28;20684;-68
2022/03/17 01:26:13;;;;;;;22.40;20.10;;;;;;;6.43;69.17;102460.03;2097603;28;20562;-68
2022/03/17 01:27:14;;;;;;;22.93;20.63;;;;;;;7.58;68.83;102625.16;2097593;28;20675;-68
2022/03/17 01:28:14;;;;;;;21.60;19.37;;;;;;;7.65;69.60;102639.09;2097416;28;20178;-68
2022/03/17 01:29:15;;;;;;;23.00;20.60;;;;;;;7.22;69.72;102580.66;2097667;28;20172;-68
2022/03/17 01:30:17;;;;;;;24.23;20.87;;;;;;;7.65;69.26;102643.81;2097740;28;20574;-68
2022/03/17 01:31:17;;;;;;;22.63;20.23;;;;;;;7.65;68.95;102647.38;2097695;28;20768;-68
2022/03/17 01:32:18;;;;;;;23.20;19.20;;;;;;;7.64;69.23;102650.50;2097444;28;20211;-68
2022/03/17 01:33:19;;;;;;;22.70;20.30;;;;;;;7.63;69.43;102646.16;2097040;28;20175;-68
2022/03/17 01:34:19;;;;;;;22.87;20.47;;;;;;;6.31;68.67;102440.91;2096575;28;20228;-68
2022/03/17 01:35:20;;;;;;;22.00;19.53;;;;;;;7.64;69.53;102645.75;2097600;28;20724;-68
2022/03/17 01:36:20;;;;;;;23.00;20.27;;;;;;;7.65;69.11;102652.91;2097725;28;20187;-68
2022/03/17 01:37:21;;;;;;;22.77;20.17;;;;;;;7.70;69.61;102644.28;2097273;28;20226;-68
2022/03/17 01:38:21;;;;;;;22.93;20.43;;;;;;;6.54;68.88;102488.59;2097445;28;20208;-68
2022/03/17 01:39:22;;;;;;;23.03;20.63;;;;;;;7.56;68.98;102645.97;2097524;28;20241;-68
2022/03/17 01:40:22;;;;;;;21.90;19.63;;;;;;;6.75;69.01;102519.38;2097561;28;20731;-68
2022/03/17 01:41:23;;;;;;;23.10;20.17;;;;;;;7.60;69.31;102647.66;2096791;28;20181;-69
2022/03/17 01:42:24;;;;;;;22.77;19.90;;;;;;;7.55;68.70;102653.47;2096729;28;20178;-68
2022/03/17 01:43:24;;;;;;;24.30;20.50;;;;;;;7.52;69.23;102651.44;2096521;28;20648;-69
2022/03/17 01:44:25;;;;;;;23.07;20.57;;;;;;;6.92;69.11;102577.63;2102599;28;20192;-68
2022/03/17 01:45:26;;;;;;;22.97;20.13;;;;;;;7.41;69.07;102647.66;2106004;28;20258;-69
2022/03/17 01:46:26;;;;;;;22.83;20.40;;;;;;;7.37;69.32;102659.75;2105811;28;20253;-68
2022/03/17 01:47:27;;;;;;;22.50;20.07;;;;;;;7.18;69.39;102635.72;2104854;28;20248;-69
2022/03/17 01:48:27;;;;;;;23.43;21.03;;;;;;;7.21;69.65;102656.25;2105548;28;20175;-68
2022/03/17 01:49:28;;;;;;;24.13;21.10;;;;;;;7.18;69.91;102655.03;2105864;28;20175;-68
2022/03/17 01:50:28;;;;;;;23.40;21.00;;;;;;;7.11;69.81;102659.56;2105895;28;20590;-69
2022/03/17 01:51:29;;;;;;;24.20;21.70;;;;;;;7.10;70.37;102667.06;2105861;28;20605;-69
2022/03/17 01:52:30;;;;;;;24.80;21.10;;;;;;;6.59;70.12;102596.59;2105452;28;20262;-68
2022/03/17 01:53:31;;;;;;;24.50;21.90;;;;;;;6.68;70.22;102634.97;2105221;28;20616;-68
2022/03/17 01:54:34;;;;;;;23.92;21.45;;;;;;;6.41;70.14;102586.28;2103866;28;20182;-69
2022/03/17 01:55:34;;;;;;;24.65;21.95;;;;;;;6.80;71.02;102663.22;2105123;28;20558;-68
2022/03/17 01:56:35;;;;;;;23.47;20.87;;;;;;;6.83;71.19;102664.44;2105814;28;20173;-68
2022/03/17 01:57:36;;;;;;;24.73;22.13;;;;;;;5.79;70.98;102511.97;2105208;28;20214;-68
2022/03/17 01:58:37;;;;;;;24.53;21.93;;;;;;;6.79;71.34;102666.31;2105405;28;20191;-68
2022/03/17 01:59:39;;;;;;;26.70;23.30;;;;;;;6.73;71.38;102671.31;2105597;28;20177;-68
2022/03/17 02:00:40;;;;;;;25.60;22.13;;;;;;;6.64;71.20;102667.13;2105067;28;20175;-68
2022/03/17 02:01:42;;;;;;;27.95;23.23;;;;;;;6.27;71.93;102632.75;2104934;28;20234;-69
2022/03/17 02:02:45;;;;;;;25.33;22.60;;;;;;;6.41;72.15;102669.69;2105261;28;20235;-68
2022/03/17 02:03:47;;;;;;;25.92;23.17;;;;;;;6.39;72.05;102676.72;2104276;28;20183;-68
2022/03/17 02:04:48;;;;;;;25.58;22.55;;;;;;;6.31;72.60;102683.22;2104553;28;20187;-69
2022/03/17 02:05:50;;;;;;;26.20;23.50;;;;;;;6.27;72.83;102669.34;2105123;28;20180;-68
2022/03/17 02:06:51;;;;;;;25.77;22.98;;;;;;;5.55;72.79;102558.88;2105476;28;20585;-68
2022/03/17 02:07:52;;;;;;;28.00;24.00;;;;;;;6.17;72.55;102652.53;2105603;28;20186;-68
2022/03/17 02:08:53;;;;;;;27.08;24.15;;;;;;;6.29;72.78;102674.50;2105660;28;20697;-68
2022/03/17 02:09:53;;;;;;;25.33;22.30;;;;;;;6.24;72.25;102680.25;2104943;28;20640;-68
2022/03/17 02:13:32;;;;;;;26.60;23.73;;;;;;;6.10;73.17;102674.41;2096710;28;20169;-68
2022/03/17 02:14:34;;;;;;;26.23;23.40;;;;;;;6.23;73.04;102673.16;2096010;28;20636;-68
2022/03/17 02:15:35;;;;;;;26.52;23.73;;;;;;;6.20;72.71;102671.13;2096759;28;20173;-68
2022/03/17 02:16:36;;;;;;;26.40;23.25;;;;;;;6.15;72.74;102683.19;2096729;28;20170;-68
2022/03/17 02:17:41;;;;;;;26.90;24.00;;;;;;;6.10;73.52;102680.69;2096793;28;20177;-68
2022/03/17 02:18:46;;;;;;;26.92;23.88;;;;;;;6.09;73.41;102681.84;2104899;28;20174;-68
2022/03/17 02:19:47;;;;;;;27.50;24.50;;;;;;;5.48;73.35;102595.22;2104940;28;20188;-68
2022/03/17 02:20:49;;;;;;;29.25;25.33;;;;;;;6.10;73.35;102677.16;2105567;28;20237;-68
2022/03/17 02:21:49;;;;;;;26.42;23.20;;;;;;;6.20;73.56;102680.16;2105479;28;20680;-68
2022/03/17 02:22:51;;;;;;;26.40;23.60;;;;;;;6.25;72.78;102671.66;2105185;28;20626;-68
2022/03/17 02:26:31;;;;;;;27.35;23.27;;;;;;;6.37;72.62;102690.06;2105685;28;20159;-68
2022/03/17 02:27:38;;;;;;;26.92;23.50;;;;;;;6.40;72.53;102692.13;2104546;28;20179;-68
2022/03/17 02:28:39;;;;;;;26.27;23.25;;;;;;;6.39;72.61;102702.31;2104942;28;20190;-68
2022/03/17 02:29:39;;;;;;;27.00;24.07;;;;;;;5.26;71.89;102523.47;2104898;28;20785;-68
2022/03/17 02:30:40;;;;;;;27.17;24.00;;;;;;;6.52;71.95;102700.28;2105514;28;20200;-69
2022/03/17 02:31:40;;;;;;;28.27;25.17;;;;;;;6.52;72.08;102687.28;2105397;28;20284;-69
2022/03/17 02:32:42;;;;;;;28.23;23.23;;;;;;;6.60;71.75;102694.59;2105353;28;20177;-68
2022/03/17 02:33:43;;;;;;;26.75;23.85;;;;;;;6.62;71.43;102697.00;2104297;28;20175;-69
2022/03/17 02:34:44;;;;;;;27.27;23.93;;;;;;;6.64;71.52;102700.19;2104853;28;20202;-68
2022/03/17 02:35:47;;;;;;;28.10;24.98;;;;;;;6.68;71.72;102710.16;2105474;28;20721;-68
2022/03/17 02:36:49;;;;;;;27.63;24.73;;;;;;;6.61;72.13;102689.91;2105291;28;20647;-68
2022/03/17 02:37:51;;;;;;;30.17;25.17;;;;;;;6.67;71.29;102705.00;2105471;28;20175;-68
2022/03/17 02:38:51;;;;;;;28.98;25.33;;;;;;;6.59;71.49;102709.53;2105338;28;20647;-69
2022/03/17 02:39:52;;;;;;;31.17;25.27;;;;;;;6.51;71.70;102706.97;2105571;28;20567;-69
2022/03/17 02:40:53;;;;;;;28.70;25.60;;;;;;;6.59;71.71;102709.53;2105734;28;20179;-68
2022/03/17 02:41:55;;;;;;;29.10;25.07;;;;;;;6.60;71.54;102713.06;2105377;28;20193;-69
2022/03/17 02:42:57;;;;;;;29.13;25.98;;;;;;;6.67;71.49;102711.28;2105185;28;20257;-68
2022/03/17 02:43:57;;;;;;;29.52;25.73;;;;;;;6.65;71.30;102718.31;2101292;28;20650;-68
2022/03/17 02:44:59;;;;;;;27.07;24.17;;;;;;;6.63;71.46;102715.94;2097090;28;20171;-69
2022/03/17 02:45:59;;;;;;;30.38;25.88;;;;;;;6.47;71.54;102709.59;2097279;28;20641;-68
2022/03/17 02:47:00;;;;;;;29.70;26.50;;;;;;;6.49;71.59;102717.50;2096682;28;20535;-68
2022/03/17 02:48:01;;;;;;;29.87;26.67;;;;;;;6.43;72.13;102725.25;2097208;28;20228;-68
2022/03/17 02:49:02;;;;;;;29.40;26.30;;;;;;;5.75;71.68;102604.59;2097136;28;20205;-68
2022/03/17 02:50:04;;;;;;;30.20;26.73;;;;;;;6.45;72.45;102728.44;2097206;28;20175;-68
2022/03/17 02:51:04;;;;;;;30.00;25.77;;;;;;;6.47;72.07;102720.63;2097099;28;20554;-69
2022/03/17 02:52:05;;;;;;;30.47;25.83;;;;;;;6.50;71.39;102728.19;2097030;28;20198;-68
2022/03/17 02:53:08;;;;;;;29.95;26.42;;;;;;;6.43;72.23;102714.22;2096571;28;20182;-68
2022/03/17 02:54:08;;;;;;;29.95;26.67;;;;;;;5.86;71.80;102617.53;2096110;28;20178;-68
2022/03/17 02:55:14;;;;;;;29.20;25.97;;;;;;;6.30;72.04;102690.66;2096991;28;20179;-68
2022/03/17 02:56:14;;;;;;;28.33;25.25;;;;;;;6.44;72.08;102721.34;2097169;28;20166;-68
2022/03/17 02:57:15;;;;;;;31.93;26.30;;;;;;;6.50;72.14;102735.63;2096902;28;20179;-68
2022/03/17 02:58:16;;;;;;;28.30;25.08;;;;;;;6.37;71.80;102732.19;2096349;28;20172;-69
2022/03/17 02:59:16;;;;;;;30.57;25.60;;;;;;;6.29;71.82;102724.06;2096201;28;20684;-69
2022/03/17 03:00:17;;;;;;;34.30;27.23;;;;;;;6.27;71.86;102732.69;2097018;28;20176;-69
2022/03/17 03:01:17;;;;;;;30.73;27.33;;;;;;;6.17;72.50;102737.91;2096965;28;20171;-68
2022/03/17 03:02:19;;;;;;;30.80;27.37;;;;;;;6.17;72.48;102743.41;2097078;28;20934;-68
2022/03/17 03:03:20;;;;;;;31.35;27.10;;;;;;;6.24;72.98;102736.13;2095963;28;20692;-68
2022/03/17 03:04:20;;;;;;;31.03;26.73;;;;;;;6.28;72.60;102736.22;2095788;28;20583;-69
2022/03/17 03:05:22;;;;;;;30.13;25.87;;;;;;;6.33;72.05;102735.97;2097129;28;20176;-69
2022/03/17 03:06:22;;;;;;;30.67;27.13;;;;;;;6.10;72.57;102693.66;2097108;28;20241;-68
2022/03/17 03:07:23;;;;;;;29.00;25.77;;;;;;;6.37;71.81;102736.88;2096544;28;20208;-69
2022/03/17 03:08:24;;;;;;;32.53;26.87;;;;;;;6.41;71.70;102740.53;2097040;28;20179;-68
2022/03/17 03:09:24;;;;;;;31.80;26.00;;;;;;;6.30;72.22;102731.97;2097047;28;20561;-69
2022/03/17 03:10:25;;;;;;;29.57;26.07;;;;;;;6.05;71.71;102693.91;2097888;28;20225;-69
2022/03/17 03:11:26;;;;;;;28.85;25.75;;;;;;;6.44;71.30;102739.81;2098667;28;20645;-68
2022/03/17 03:12:26;;;;;;;29.77;25.50;;;;;;;6.46;71.34;102745.78;2098561;28;20643;-69
2022/03/17 03:13:27;;;;;;;30.33;25.93;;;;;;;6.49;70.96;102747.81;2105570;28;20675;-68
2022/03/17 03:14:29;;;;;;;30.17;25.83;;;;;;;6.54;71.34;102740.09;2105538;28;20174;-68
2022/03/17 03:15:29;;;;;;;29.92;25.75;;;;;;;6.53;70.94;102741.25;2107088;28;20624;-69
2022/03/17 03:16:30;;;;;;;31.47;26.07;;;;;;;6.56;70.83;102739.75;2107106;28;20171;-69
2022/03/17 03:17:31;;;;;;;29.47;26.27;;;;;;;6.33;70.96;102680.91;2106408;28;20179;-69
2022/03/17 03:18:32;;;;;;;30.20;25.37;;;;;;;6.64;71.20;102734.06;2107102;28;20182;-69
2022/03/17 03:19:33;;;;;;;29.30;24.97;;;;;;;5.50;70.61;102561.88;2106684;28;20181;-69
2022/03/17 03:20:33;;;;;;;28.05;24.90;;;;;;;6.73;69.99;102742.97;2098912;28;20244;-69
2022/03/17 03:21:34;;;;;;;30.23;26.13;;;;;;;6.76;70.35;102736.72;2098424;28;20520;-69
2022/03/17 03:22:39;;;;;;;29.63;25.70;;;;;;;6.83;70.45;102736.09;2098198;28;20182;-69
2022/03/17 03:23:39;;;;;;;28.20;24.60;;;;;;;6.85;70.35;102734.59;2097081;28;20155;-69
2022/03/17 03:24:40;;;;;;;28.50;25.33;;;;;;;6.84;70.46;102735.75;2097782;28;20225;-69
2022/03/17 03:25:40;;;;;;;27.17;24.27;;;;;;;6.90;70.67;102728.00;2098471;28;20182;-69
2022/03/17 03:26:42;;;;;;;30.17;25.50;;;;;;;6.92;70.24;102736.72;2098478;28;20175;-69
2022/03/17 03:27:44;;;;;;;28.05;24.70;;;;;;;6.19;69.98;102631.78;2098150;28;20187;-69
2022/03/17 03:28:44;;;;;;;27.90;24.90;;;;;;;6.98;70.32;102735.31;2098537;28;20594;-69
2022/03/17 03:29:46;;;;;;;28.33;24.37;;;;;;;7.00;70.66;102744.00;2097547;28;20184;-69
2022/03/17 03:30:49;;;;;;;27.85;24.83;;;;;;;7.05;70.14;102738.22;2098041;28;20171;-69
2022/03/17 03:31:51;;;;;;;27.90;24.38;;;;;;;6.43;70.10;102648.13;2097515;28;20175;-69
2022/03/17 03:32:51;;;;;;;29.30;24.40;;;;;;;7.09;69.48;102736.34;2089370;28;20254;-69
2022/03/17 03:33:52;;;;;;;26.50;23.70;;;;;;;7.06;69.75;102743.38;2096090;28;20222;-69
2022/03/17 03:34:53;;;;;;;26.40;23.40;;;;;;;7.04;69.99;102736.63;2098162;28;20180;-69
2022/03/17 03:37:25;;;;;;;27.10;23.02;;;;;;;7.01;69.40;102737.31;2098078;28;20164;-69
2022/03/17 03:38:26;;;;;;;29.23;23.98;;;;;;;7.04;69.74;102747.66;2098458;28;20168;-69
2022/03/17 03:39:27;;;;;;;27.33;24.13;;;;;;;7.03;70.26;102740.53;2098455;28;20263;-69
2022/03/17 03:40:27;;;;;;;26.47;23.53;;;;;;;7.03;69.81;102744.06;2098264;28;20180;-69
2022/03/17 03:41:28;;;;;;;27.07;23.40;;;;;;;7.03;69.57;102738.56;2098335;28;20211;-69
2022/03/17 03:42:28;;;;;;;27.07;24.07;;;;;;;6.99;69.38;102737.72;2098209;28;20172;-68
2022/03/17 03:43:32;;;;;;;27.83;24.23;;;;;;;6.96;70.15;102735.66;2097406;28;20221;-68
2022/03/17 03:44:33;;;;;;;26.52;23.65;;;;;;;6.02;69.82;102581.75;2104253;28;20193;-69
2022/03/17 03:45:34;;;;;;;27.45;23.73;;;;;;;6.93;69.96;102732.81;2106849;28;20174;-69
2022/03/17 03:46:34;;;;;;;29.43;25.47;;;;;;;6.66;69.34;102722.69;2106823;28;20170;-69
2022/03/17 03:47:35;;;;;;;27.67;24.47;;;;;;;6.06;70.69;102643.22;2106158;28;20167;-69
2022/03/17 03:48:35;;;;;;;30.93;25.43;;;;;;;6.67;70.93;102746.31;2106919;28;20224;-69
2022/03/17 03:49:39;;;;;;;28.60;25.33;;;;;;;6.66;70.63;102745.53;2106604;28;20659;-69
2022/03/17 03:50:40;;;;;;;30.42;25.63;;;;;;;6.64;70.73;102744.28;2105812;28;20685;-68
2022/03/17 03:51:40;;;;;;;30.33;25.83;;;;;;;6.53;70.53;102756.97;2106013;28;20624;-68
2022/03/17 03:52:41;;;;;;;28.47;24.93;;;;;;;6.50;70.87;102752.16;2106437;28;20593;-69
2022/03/17 03:55:01;;;;;;;29.83;26.63;;;;;;;6.57;71.73;102749.59;2106179;28;20170;-68
2022/03/17 03:56:01;;;;;;;30.37;26.17;;;;;;;6.57;71.15;102750.41;2106622;28;20171;-68
2022/03/17 03:57:02;;;;;;;29.27;25.80;;;;;;;5.86;71.95;102624.97;2106185;28;20175;-69
2022/03/17 03:58:03;;;;;;;30.17;26.30;;;;;;;6.17;71.46;102702.91;2106665;28;20242;-69
2022/03/17 03:59:07;;;;;;;30.37;27.13;;;;;;;6.53;71.40;102745.94;2106542;28;20167;-68
2022/03/17 04:00:53;;;;;;;30.98;27.42;;;;;;;6.68;71.33;102754.25;2106451;28;20181;-69
2022/03/17 04:01:31;;;;;;;29.10;26.00;;;;;;;6.72;71.20;102755.13;2098868;28;20193;-68
2022/03/17 04:02:31;;;;;;;29.30;26.20;;;;;;;6.34;71.56;102691.56;2106240;28;20251;-68
2022/03/17 04:03:32;;;;;;;31.17;27.63;;;;;;;5.92;71.05;102615.31;2105725;28;20679;-69
2022/03/17 04:04:36;;;;;;;28.67;25.57;;;;;;;5.69;71.26;102578.50;2105088;28;20225;-69
2022/03/17 04:05:37;;;;;;;30.88;26.83;;;;;;;6.86;70.98;102766.50;2106515;28;20194;-69
2022/03/17 04:06:46;;;;;;;29.50;26.30;;;;;;;6.85;71.16;102767.66;2106784;28;20171;-69
2022/03/17 04:07:47;;;;;;;32.05;26.63;;;;;;;6.47;70.71;102703.31;2106483;28;20155;-69
2022/03/17 04:08:47;;;;;;;30.47;26.23;;;;;;;6.45;71.31;102700.09;2106690;28;20178;-68
2022/03/17 04:09:48;;;;;;;28.03;25.10;;;;;;;6.89;71.01;102776.03;2106541;28;20232;-69
2022/03/17 04:10:48;;;;;;;29.67;25.43;;;;;;;6.33;70.49;102709.25;2106364;28;20619;-68
2022/03/17 04:11:50;;;;;;;31.17;26.20;;;;;;;6.90;70.95;102774.84;2106425;28;20644;-69
2022/03/17 04:12:51;;;;;;;30.65;26.83;;;;;;;6.77;71.16;102752.09;2106292;28;20302;-69
2022/03/17 04:13:51;;;;;;;30.77;26.00;;;;;;;6.87;71.20;102773.63;2105047;28;20175;-69
2022/03/17 04:14:52;;;;;;;30.93;26.47;;;;;;;5.84;70.73;102641.06;2106051;28;20190;-69
2022/03/17 04:15:53;;;;;;;30.77;26.73;;;;;;;6.90;70.90;102780.38;2105842;28;20220;-68
2022/03/17 04:16:54;;;;;;;34.30;25.57;;;;;;;6.85;70.89;102783.41;2105462;28;20177;-69
2022/03/17 04:17:55;;;;;;;30.50;26.27;;;;;;;6.74;71.00;102790.59;2106390;28;20179;-68
2022/03/17 04:18:55;;;;;;;30.57;26.27;;;;;;;6.79;70.86;102788.38;2106569;28;20180;-68
2022/03/17 04:19:56;;;;;;;31.60;27.03;;;;;;;5.40;70.80;102574.19;2103050;28;20172;-68
2022/03/17 04:20:56;;;;;;;32.27;26.57;;;;;;;6.80;70.86;102795.50;2088527;28;20620;-69
2022/03/17 04:21:57;;;;;;;30.97;26.40;;;;;;;6.79;70.58;102795.84;2097294;28;20645;-68
2022/03/17 04:22:57;;;;;;;29.73;25.93;;;;;;;6.77;71.27;102801.69;2097763;28;20200;-68
2022/03/17 04:23:59;;;;;;;33.20;25.37;;;;;;;6.81;71.14;102802.59;2096263;28;20200;-68
2022/03/17 04:24:59;;;;;;;31.92;25.15;;;;;;;6.71;71.02;102803.13;2097548;28;20168;-68
2022/03/17 04:26:00;;;;;;;31.73;25.07;;;;;;;6.68;71.73;102798.34;2098133;28;20644;-68
2022/03/17 04:27:00;;;;;;;32.07;25.03;;;;;;;6.53;71.34;102807.38;2097608;28;20175;-68
2022/03/17 04:28:01;;;;;;;29.10;22.47;;;;;;;6.43;71.84;102793.28;2098125;28;20176;-68
2022/03/17 04:29:02;;;;;;;32.47;22.00;;;;;;;6.62;71.51;102809.97;2098132;28;20178;-68
2022/03/17 04:30:03;;;;;;;28.77;21.17;;;;;;;6.46;71.10;102789.84;2098111;28;20180;-68
2022/03/17 04:31:04;;;;;;;30.17;21.42;;;;;;;6.68;70.83;102806.59;2097737;28;20258;-68
2022/03/17 04:32:04;;;;;;;26.07;19.60;;;;;;;6.78;71.05;102817.09;2097995;28;20203;-68
2022/03/17 04:33:05;;;;;;;23.23;18.30;;;;;;;6.78;70.52;102822.63;2097682;28;20199;-69
2022/03/17 04:34:07;;;;;;;25.93;17.17;;;;;;;6.88;70.31;102824.03;2095360;28;20222;-68
2022/03/17 04:35:07;;;;;;;26.83;17.63;;;;;;;6.92;70.70;102827.69;2097029;28;20254;-68
2022/03/17 04:36:10;;;;;;;26.27;17.83;;;;;;;6.89;70.64;102826.44;2097950;28;20179;-68
2022/03/17 04:37:10;;;;;;;26.67;16.50;;;;;;;6.65;69.98;102784.44;2097670;28;20171;-68
2022/03/17 04:38:10;;;;;;;22.33;15.83;;;;;;;7.00;70.37;102835.78;2097889;28;20182;-68
2022/03/17 04:39:11;;;;;;;22.20;15.80;;;;;;;7.03;69.83;102828.75;2098001;28;20175;-68
2022/03/17 04:40:13;;;;;;;23.73;15.03;;;;;;;6.26;69.98;102720.06;2097922;28;20722;-68
2022/03/17 04:41:14;;;;;;;23.58;15.50;;;;;;;6.01;69.63;102688.28;2097866;28;20168;-68
2022/03/17 04:42:14;;;;;;;24.60;15.45;;;;;;;6.89;69.99;102826.44;2097757;28;20574;-68
2022/03/17 04:43:18;;;;;;;24.77;16.20;;;;;;;7.01;70.05;102842.09;2096919;28;20266;-69
2022/03/17 04:44:18;;;;;;;24.75;16.00;;;;;;;6.91;70.06;102817.81;2101813;28;20191;-68
2022/03/17 04:45:19;;;;;;;23.53;14.77;;;;;;;7.08;69.54;102839.53;2106282;28;20185;-68
2022/03/17 04:46:20;;;;;;;23.90;15.67;;;;;;;6.33;69.59;102727.72;2106224;28;20284;-68
2022/03/17 04:47:21;;;;;;;22.40;15.43;;;;;;;6.95;69.74;102821.47;2105793;28;20208;-68
2022/03/17 04:48:22;;;;;;;20.98;14.02;;;;;;;7.15;68.98;102848.78;2106346;28;20171;-68
2022/03/17 04:49:22;;;;;;;20.60;14.63;;;;;;;6.74;69.11;102788.66;2106324;28;20187;-69
2022/03/17 04:50:23;;;;;;;24.13;14.70;;;;;;;7.17;68.66;102851.97;2106313;28;20257;-68